createdAt,value
2018-09-21T00:02:28.957Z,16.90
2018-09-21T00:04:57.524Z,16.90
2018-09-21T00:07:26.023Z,16.90
2018-09-21T00:09:54.521Z,16.90
2018-09-21T00:12:23.119Z,16.80
2018-09-21T00:14:51.622Z,16.80
2018-09-21T00:17:20.140Z,16.80
2018-09-21T00:19:48.701Z,16.70
2018-09-21T00:22:17.242Z,16.70
2018-09-21T00:24:45.757Z,16.70
2018-09-21T00:27:14.352Z,16.70
2018-09-21T00:29:43.638Z,16.70
2018-09-21T00:32:16.873Z,16.60
2018-09-21T00:34:50.085Z,16.60
2018-09-21T00:37:19.383Z,16.50
2018-09-21T00:39:54.323Z,16.50
2018-09-21T00:42:25.073Z,16.50
2018-09-21T00:45:03.804Z,16.40
2018-09-21T00:47:44.300Z,16.40
2018-09-21T00:50:14.520Z,16.40
2018-09-21T00:52:51.362Z,16.40
2018-09-21T00:55:21.102Z,16.30
2018-09-21T00:58:05.235Z,16.30
2018-09-21T01:00:34.388Z,16.30
2018-09-21T01:03:04.903Z,16.20
2018-09-21T01:05:37.024Z,16.20
2018-09-21T01:08:09.848Z,16.20
2018-09-21T01:10:43.120Z,16.10
2018-09-21T01:13:20.217Z,16.10
2018-09-21T01:15:48.756Z,16.00
2018-09-21T01:18:17.278Z,16.00
2018-09-21T01:20:46.917Z,16.00
2018-09-21T01:23:16.340Z,15.90
2018-09-21T01:25:46.071Z,15.90
2018-09-21T01:28:15.659Z,15.90
2018-09-21T01:30:44.144Z,15.90
2018-09-21T01:33:13.608Z,15.80
2018-09-21T01:35:43.314Z,15.80
2018-09-21T01:38:11.845Z,15.80
2018-09-21T01:40:40.416Z,15.80
2018-09-21T01:43:08.912Z,15.80
2018-09-21T01:45:37.477Z,15.80
2018-09-21T01:48:06.019Z,15.80
2018-09-21T01:50:34.611Z,15.80
2018-09-21T01:53:03.071Z,15.80
2018-09-21T01:55:31.622Z,15.70
2018-09-21T01:58:00.131Z,15.70
2018-09-21T02:00:28.723Z,15.70
2018-09-21T02:02:57.231Z,15.60
2018-09-21T02:05:25.788Z,15.60
2018-09-21T02:07:54.283Z,15.60
2018-09-21T02:10:22.817Z,15.60
2018-09-21T02:12:51.308Z,15.60
2018-09-21T02:15:19.846Z,15.50
2018-09-21T02:17:48.419Z,15.50
2018-09-21T02:20:16.959Z,15.50
2018-09-21T02:22:45.459Z,15.40
2018-09-21T02:25:14.297Z,15.40
2018-09-21T02:27:42.763Z,15.40
2018-09-21T02:30:11.380Z,15.40
2018-09-21T02:32:39.876Z,15.30
2018-09-21T02:35:08.513Z,15.30
2018-09-21T02:37:37.033Z,15.30
2018-09-21T02:40:06.625Z,15.30
2018-09-21T02:42:35.180Z,15.30
2018-09-21T02:45:03.724Z,15.20
2018-09-21T02:47:32.264Z,15.20
2018-09-21T02:50:00.800Z,15.20
2018-09-21T02:52:29.318Z,15.20
2018-09-21T02:54:57.824Z,15.10
2018-09-21T02:57:26.346Z,15.10
2018-09-21T02:59:54.876Z,15.10
2018-09-21T03:02:23.418Z,15.10
2018-09-21T03:04:53.400Z,15.10
2018-09-21T03:07:22.688Z,15.00
2018-09-21T03:09:51.217Z,15.00
2018-09-21T03:12:19.763Z,15.00
2018-09-21T03:14:48.270Z,15.00
2018-09-21T03:17:16.802Z,15.00
2018-09-21T03:19:45.444Z,15.00
2018-09-21T03:22:14.060Z,15.00
2018-09-21T03:24:42.576Z,15.00
2018-09-21T03:27:11.158Z,15.00
2018-09-21T03:29:39.760Z,15.00
2018-09-21T03:32:08.258Z,15.00
2018-09-21T03:34:36.780Z,14.90
2018-09-21T03:37:05.316Z,14.90
2018-09-21T03:39:33.934Z,14.90
2018-09-21T03:42:02.434Z,14.80
2018-09-21T03:44:30.964Z,14.80
2018-09-21T03:46:59.463Z,14.90
2018-09-21T03:49:27.984Z,14.80
2018-09-21T03:51:56.504Z,14.80
2018-09-21T03:54:25.036Z,14.80
2018-09-21T03:56:53.563Z,14.80
2018-09-21T03:59:22.095Z,14.80
2018-09-21T04:01:50.623Z,14.80
2018-09-21T04:04:19.192Z,14.70
2018-09-21T04:06:47.708Z,14.80
2018-09-21T04:09:16.259Z,14.70
2018-09-21T04:11:44.760Z,14.80
2018-09-21T04:14:13.295Z,14.70
2018-09-21T04:16:41.815Z,14.70
2018-09-21T04:19:10.676Z,14.70
2018-09-21T04:21:39.182Z,14.70
2018-09-21T04:24:07.684Z,14.70
2018-09-21T04:26:36.279Z,14.60
2018-09-21T04:29:04.791Z,14.60
2018-09-21T04:31:33.359Z,14.60
2018-09-21T04:34:01.883Z,14.60
2018-09-21T04:36:30.407Z,14.60
2018-09-21T04:38:58.879Z,14.60
2018-09-21T04:41:27.451Z,14.60
2018-09-21T04:43:55.982Z,14.50
2018-09-21T04:46:24.467Z,14.50
2018-09-21T04:48:53.019Z,14.50
2018-09-21T04:51:21.507Z,14.50
2018-09-21T04:53:50.039Z,14.50
2018-09-21T04:56:18.550Z,14.50
2018-09-21T04:58:47.078Z,14.50
2018-09-21T05:01:15.594Z,14.50
2018-09-21T05:03:44.135Z,14.50
2018-09-21T05:06:12.635Z,14.50
2018-09-21T05:08:41.183Z,14.50
2018-09-21T05:11:09.770Z,14.50
2018-09-21T05:13:38.342Z,14.50
2018-09-21T05:16:07.263Z,14.50
2018-09-21T05:18:35.839Z,14.50
2018-09-21T05:21:04.360Z,14.50
2018-09-21T05:23:32.908Z,14.60
2018-09-21T05:26:01.476Z,14.60
2018-09-21T05:28:30.020Z,14.60
2018-09-21T05:30:58.875Z,14.70
2018-09-21T05:33:27.399Z,14.70
2018-09-21T05:35:55.896Z,14.70
2018-09-21T05:38:24.448Z,14.70
2018-09-21T05:40:53.047Z,14.80
2018-09-21T05:43:21.588Z,14.80
2018-09-21T05:45:50.350Z,14.90
2018-09-21T05:48:18.851Z,14.90
2018-09-21T05:50:47.415Z,15.00
2018-09-21T05:53:15.909Z,15.00
2018-09-21T05:55:44.483Z,15.10
2018-09-21T05:58:13.010Z,15.10
2018-09-21T06:00:41.548Z,15.20
2018-09-21T06:03:10.061Z,15.30
2018-09-21T06:05:38.636Z,15.30
2018-09-21T06:08:07.245Z,15.40
2018-09-21T06:10:35.759Z,15.50
2018-09-21T06:13:04.311Z,15.50
2018-09-21T06:15:32.896Z,15.60
2018-09-21T06:18:03.709Z,15.70
2018-09-21T06:20:32.211Z,15.70
2018-09-21T06:23:00.788Z,15.80
2018-09-21T06:25:29.300Z,15.90
2018-09-21T06:27:57.884Z,15.90
2018-09-21T06:30:26.408Z,16.00
2018-09-21T06:32:55.018Z,16.10
2018-09-21T06:35:23.529Z,16.20
2018-09-21T06:37:52.100Z,16.30
2018-09-21T06:40:20.612Z,16.40
2018-09-21T06:42:49.194Z,16.50
2018-09-21T06:45:17.792Z,16.50
2018-09-21T06:47:46.395Z,16.60
2018-09-21T06:50:14.935Z,16.70
2018-09-21T06:52:43.483Z,16.80
2018-09-21T06:55:12.032Z,16.90
2018-09-21T06:57:40.628Z,17.00
2018-09-21T07:00:09.148Z,17.10
2018-09-21T07:02:37.709Z,17.10
2018-09-21T07:05:13.086Z,17.20
2018-09-21T07:07:42.043Z,17.40
2018-09-21T07:10:10.720Z,17.50
2018-09-21T07:12:39.283Z,17.60
2018-09-21T07:15:08.363Z,17.70
2018-09-21T07:17:36.925Z,17.80
2018-09-21T07:20:05.564Z,17.80
2018-09-21T07:22:34.523Z,17.90
2018-09-21T07:25:03.160Z,18.10
2018-09-21T07:27:31.736Z,18.20
2018-09-21T07:30:00.277Z,18.30
2018-09-21T07:32:28.851Z,18.50
2018-09-21T07:34:57.646Z,18.60
2018-09-21T07:37:26.252Z,18.80
2018-09-21T07:39:54.827Z,18.90
2018-09-21T07:42:23.346Z,19.00
2018-09-21T07:44:51.881Z,19.20
2018-09-21T07:47:20.408Z,19.30
2018-09-21T07:49:49.016Z,19.40
2018-09-21T07:52:17.547Z,19.50
2018-09-21T07:54:46.140Z,19.60
2018-09-21T07:57:14.692Z,19.80
2018-09-21T07:59:43.382Z,20.00
2018-09-21T08:02:11.909Z,20.20
2018-09-21T08:04:40.479Z,20.50
2018-09-21T08:07:09.366Z,20.80
2018-09-21T08:09:37.877Z,21.20
2018-09-21T08:12:06.503Z,21.50
2018-09-21T08:14:35.043Z,21.90
2018-09-21T08:17:08.647Z,22.10
2018-09-21T08:19:37.154Z,22.40
2018-09-21T08:22:05.760Z,22.60
2018-09-21T08:24:34.305Z,22.80
2018-09-21T08:27:03.070Z,23.00
2018-09-21T08:29:31.623Z,23.20
2018-09-21T08:32:00.205Z,23.40
2018-09-21T08:34:28.729Z,23.60
2018-09-21T08:36:57.319Z,23.80
2018-09-21T08:39:25.893Z,23.90
2018-09-21T08:41:54.465Z,24.00
2018-09-21T08:44:22.984Z,24.20
2018-09-21T08:46:51.526Z,24.30
2018-09-21T08:49:20.011Z,24.40
2018-09-21T08:51:48.598Z,24.60
2018-09-21T08:54:17.092Z,24.60
2018-09-21T08:56:45.656Z,24.80
2018-09-21T08:59:14.234Z,24.90
2018-09-21T09:01:42.773Z,25.00
2018-09-21T09:04:11.381Z,25.10
2018-09-21T09:06:39.992Z,25.30
2018-09-21T09:09:09.780Z,25.40
2018-09-21T09:11:38.774Z,25.50
2018-09-21T09:14:07.550Z,25.60
2018-09-21T09:16:36.136Z,25.70
2018-09-21T09:19:04.741Z,25.90
2018-09-21T09:21:33.326Z,25.90
2018-09-21T09:24:04.606Z,26.00
2018-09-21T09:26:33.181Z,26.20
2018-09-21T09:29:03.249Z,26.30
2018-09-21T09:31:31.847Z,26.40
2018-09-21T09:34:00.578Z,26.50
2018-09-21T09:36:29.154Z,26.60
2018-09-21T09:38:57.764Z,26.70
2018-09-21T09:41:26.347Z,26.80
2018-09-21T09:43:54.914Z,27.00
2018-09-21T09:46:23.468Z,27.10
2018-09-21T09:48:52.128Z,27.20
2018-09-21T09:51:20.683Z,27.30
2018-09-21T09:53:49.321Z,27.30
2018-09-21T09:56:17.918Z,27.40
2018-09-21T09:58:46.474Z,27.50
2018-09-21T10:01:15.066Z,27.60
2018-09-21T10:03:43.734Z,27.70
2018-09-21T10:06:12.169Z,27.80
2018-09-21T10:08:40.755Z,27.90
2018-09-21T10:11:09.369Z,28.00
2018-09-21T10:13:37.866Z,28.10
2018-09-21T10:16:06.443Z,28.10
2018-09-21T10:18:34.974Z,28.10
2018-09-21T10:21:03.610Z,28.10
2018-09-21T10:23:32.120Z,28.20
2018-09-21T10:26:00.702Z,28.30
2018-09-21T10:28:29.438Z,28.40
2018-09-21T10:30:57.809Z,28.50
2018-09-21T10:33:26.348Z,28.60
2018-09-21T10:35:54.890Z,28.70
2018-09-21T10:38:23.453Z,28.80
2018-09-21T10:40:52.066Z,28.80
2018-09-21T10:43:20.556Z,28.80
2018-09-21T10:45:49.124Z,28.80
2018-09-21T10:48:17.651Z,28.90
2018-09-21T10:50:46.266Z,29.00
2018-09-21T10:53:14.797Z,29.00
2018-09-21T10:55:43.332Z,29.00
2018-09-21T10:58:11.907Z,29.10
2018-09-21T11:00:40.470Z,29.20
2018-09-21T11:03:08.983Z,29.30
2018-09-21T11:05:37.513Z,29.40
2018-09-21T11:08:06.089Z,29.40
2018-09-21T11:10:34.609Z,29.50
2018-09-21T11:13:03.198Z,29.50
2018-09-21T11:15:31.711Z,29.60
2018-09-21T11:18:00.307Z,29.70
2018-09-21T11:20:28.815Z,29.70
2018-09-21T11:22:57.369Z,29.80
2018-09-21T11:25:25.900Z,29.90
2018-09-21T11:27:54.499Z,29.90
2018-09-21T11:30:23.058Z,30.00
2018-09-21T11:32:51.622Z,30.00
2018-09-21T11:35:20.125Z,30.10
2018-09-21T11:37:48.703Z,30.00
2018-09-21T11:40:17.227Z,30.10
2018-09-21T11:42:45.801Z,30.10
2018-09-21T11:45:14.332Z,30.10
2018-09-21T11:47:42.869Z,30.20
2018-09-21T11:50:11.458Z,30.20
2018-09-21T11:52:40.019Z,30.30
2018-09-21T11:55:08.597Z,30.30
2018-09-21T11:57:37.124Z,30.30
2018-09-21T12:00:05.919Z,30.40
2018-09-21T12:02:34.451Z,30.40
2018-09-21T12:05:03.087Z,30.50
2018-09-21T12:07:31.531Z,30.60
2018-09-21T12:10:00.101Z,30.60
2018-09-21T12:12:28.595Z,30.70
2018-09-21T12:14:57.152Z,30.70
2018-09-21T12:17:25.640Z,30.70
2018-09-21T12:19:54.255Z,30.60
2018-09-21T12:22:22.786Z,30.60
2018-09-21T12:24:51.324Z,30.60
2018-09-21T12:27:19.843Z,30.60
2018-09-21T12:29:48.516Z,30.80
2018-09-21T12:32:17.031Z,30.80
2018-09-21T12:34:45.558Z,30.80
2018-09-21T12:37:14.068Z,30.80
2018-09-21T12:39:42.608Z,30.80
2018-09-21T12:42:11.138Z,30.80
2018-09-21T12:44:39.715Z,30.80
2018-09-21T12:47:08.217Z,30.80
2018-09-21T12:49:37.958Z,30.80
2018-09-21T12:52:06.884Z,30.80
2018-09-21T12:54:35.432Z,30.80
2018-09-21T12:57:04.080Z,30.80
2018-09-21T12:59:32.694Z,30.80
2018-09-21T13:02:04.268Z,30.90
2018-09-21T13:04:32.791Z,30.80
2018-09-21T13:07:03.170Z,30.80
2018-09-21T13:09:31.698Z,30.80
2018-09-21T13:12:00.247Z,30.70
2018-09-21T13:14:28.851Z,30.60
2018-09-21T13:16:57.409Z,30.70
2018-09-21T13:19:25.909Z,30.80
2018-09-21T13:21:54.460Z,30.80
2018-09-21T13:24:22.955Z,30.70
2018-09-21T13:26:51.584Z,30.80
2018-09-21T13:29:20.047Z,30.70
2018-09-21T13:31:48.604Z,30.50
2018-09-21T13:34:17.119Z,30.50
2018-09-21T13:36:45.692Z,30.50
2018-09-21T13:39:14.244Z,30.50
2018-09-21T13:41:42.750Z,30.50
2018-09-21T13:44:12.010Z,30.50
2018-09-21T13:46:40.518Z,30.50
2018-09-21T13:49:09.154Z,30.50
2018-09-21T13:51:37.746Z,30.40
2018-09-21T13:54:06.327Z,30.30
2018-09-21T13:56:34.795Z,30.30
2018-09-21T13:59:03.395Z,30.20
2018-09-21T14:01:32.033Z,30.20
2018-09-21T14:04:00.855Z,30.10
2018-09-21T14:06:29.327Z,30.10
2018-09-21T14:08:57.874Z,30.10
2018-09-21T14:11:26.381Z,30.10
2018-09-21T14:13:54.949Z,30.00
2018-09-21T14:16:23.495Z,30.00
2018-09-21T14:18:52.029Z,30.00
2018-09-21T14:21:20.515Z,29.90
2018-09-21T14:23:49.037Z,29.80
2018-09-21T14:26:17.531Z,29.80
2018-09-21T14:28:46.434Z,29.70
2018-09-21T14:31:14.935Z,29.70
2018-09-21T14:33:43.467Z,29.60
2018-09-21T14:36:12.015Z,29.60
2018-09-21T14:38:40.542Z,29.50
2018-09-21T14:41:09.095Z,29.50
2018-09-21T14:43:37.619Z,29.40
2018-09-21T14:46:06.194Z,29.30
2018-09-21T14:48:34.694Z,29.20
2018-09-21T14:51:03.644Z,29.20
2018-09-21T14:53:32.164Z,29.20
2018-09-21T14:56:00.758Z,29.20
2018-09-21T14:58:29.270Z,29.00
2018-09-21T15:00:57.818Z,29.00
2018-09-21T15:03:26.304Z,29.00
2018-09-21T15:05:55.675Z,28.90
2018-09-21T15:08:24.271Z,28.80
2018-09-21T15:10:52.900Z,28.70
2018-09-21T15:13:21.920Z,28.60
2018-09-21T15:15:50.696Z,28.50
2018-09-21T15:18:19.292Z,28.40
2018-09-21T15:20:47.838Z,28.40
2018-09-21T15:23:16.380Z,28.30
2018-09-21T15:25:44.901Z,28.30
2018-09-21T15:28:13.658Z,28.20
2018-09-21T15:30:42.464Z,28.10
2018-09-21T15:33:11.078Z,28.00
2018-09-21T15:35:39.582Z,28.00
2018-09-21T15:38:08.294Z,27.90
2018-09-21T15:40:36.813Z,27.70
2018-09-21T15:43:05.383Z,27.60
2018-09-21T15:45:33.918Z,27.50
2018-09-21T15:48:03.296Z,27.50
2018-09-21T15:50:31.933Z,27.30
2018-09-21T15:53:00.524Z,27.30
2018-09-21T15:55:29.062Z,27.20
2018-09-21T15:57:57.652Z,27.10
2018-09-21T16:00:26.234Z,27.10
2018-09-21T16:02:54.808Z,26.90
2018-09-21T16:05:23.293Z,26.90
2018-09-21T16:07:51.816Z,26.80
2018-09-21T16:10:20.333Z,26.70
2018-09-21T16:12:48.909Z,26.70
2018-09-21T16:15:17.424Z,26.60
2018-09-21T16:17:45.985Z,26.60
2018-09-21T16:20:14.493Z,26.60
2018-09-21T16:22:43.386Z,26.50
2018-09-21T16:25:11.943Z,26.30
2018-09-21T16:27:40.459Z,26.30
2018-09-21T16:30:09.746Z,26.20
2018-09-21T16:32:38.372Z,26.20
2018-09-21T16:35:07.119Z,26.00
2018-09-21T16:37:35.655Z,25.90
2018-09-21T16:40:07.861Z,25.80
2018-09-21T16:42:36.411Z,25.80
2018-09-21T16:45:06.161Z,25.70
2018-09-21T16:47:34.618Z,25.60
2018-09-21T16:50:03.551Z,25.50
2018-09-21T16:52:32.112Z,25.50
2018-09-21T16:55:00.814Z,25.30
2018-09-21T16:57:29.326Z,25.30
2018-09-21T16:59:57.871Z,25.30
2018-09-21T17:02:26.390Z,25.10
2018-09-21T17:04:55.046Z,25.10
2018-09-21T17:07:23.515Z,25.00
2018-09-21T17:09:52.105Z,25.00
2018-09-21T17:12:20.621Z,24.90
2018-09-21T17:14:49.202Z,24.80
2018-09-21T17:17:17.771Z,24.70
2018-09-21T17:19:46.376Z,24.70
2018-09-21T17:22:14.956Z,24.60
2018-09-21T17:24:43.543Z,24.60
2018-09-21T17:27:12.070Z,24.50
2018-09-21T17:29:40.555Z,24.40
2018-09-21T17:32:09.195Z,24.40
2018-09-21T17:34:37.655Z,24.30
2018-09-21T17:37:06.280Z,24.20
2018-09-21T17:39:34.859Z,24.10
2018-09-21T17:42:03.661Z,24.10
2018-09-21T17:44:32.164Z,24.00
2018-09-21T17:47:00.812Z,23.90
2018-09-21T17:49:29.291Z,23.90
2018-09-21T17:51:57.871Z,23.80
2018-09-21T17:54:26.390Z,23.70
2018-09-21T17:56:55.034Z,23.60
2018-09-21T17:59:23.586Z,23.60
2018-09-21T18:01:52.119Z,23.50
2018-09-21T18:04:20.642Z,23.50
2018-09-21T18:06:49.210Z,23.40
2018-09-21T18:09:17.724Z,23.30
2018-09-21T18:11:46.255Z,23.30
2018-09-21T18:14:14.796Z,23.20
2018-09-21T18:16:43.384Z,23.10
2018-09-21T18:19:11.924Z,23.10
2018-09-21T18:21:40.509Z,23.00
2018-09-21T18:24:09.295Z,23.00
2018-09-21T18:26:37.929Z,22.90
2018-09-21T18:29:07.667Z,22.90
2018-09-21T18:31:36.304Z,22.90
2018-09-21T18:34:04.838Z,22.90
2018-09-21T18:36:33.347Z,22.90
2018-09-21T18:39:03.560Z,22.80
2018-09-21T18:41:32.077Z,22.80
2018-09-21T18:44:00.618Z,22.80
2018-09-21T18:46:29.144Z,22.70
2018-09-21T18:48:57.739Z,22.70
2018-09-21T18:51:26.315Z,22.60
2018-09-21T18:53:54.899Z,22.60
2018-09-21T18:56:23.495Z,22.60
2018-09-21T18:58:52.087Z,22.60
2018-09-21T19:01:20.616Z,22.50
2018-09-21T19:03:49.191Z,22.50
2018-09-21T19:06:17.735Z,22.50
2018-09-21T19:08:46.301Z,22.40
2018-09-21T19:11:14.880Z,22.40
2018-09-21T19:13:43.396Z,22.30
2018-09-21T19:16:11.924Z,22.30
2018-09-21T19:18:40.477Z,22.30
2018-09-21T19:21:09.004Z,22.20
2018-09-21T19:23:37.538Z,22.20
2018-09-21T19:26:06.115Z,22.10
2018-09-21T19:28:34.638Z,22.10
2018-09-21T19:31:04.230Z,22.00
2018-09-21T19:33:32.745Z,22.00
2018-09-21T19:36:03.137Z,21.90
2018-09-21T19:38:31.677Z,21.80
2018-09-21T19:41:00.220Z,21.80
2018-09-21T19:43:28.734Z,21.70
2018-09-21T19:45:57.324Z,21.60
2018-09-21T19:48:25.856Z,21.60
2018-09-21T19:50:54.408Z,21.60
2018-09-21T19:53:22.932Z,21.50
2018-09-21T19:55:51.473Z,21.50
2018-09-21T19:58:19.992Z,21.40
2018-09-21T20:00:48.551Z,21.30
2018-09-21T20:03:20.156Z,21.20
2018-09-21T20:05:48.740Z,21.10
2018-09-21T20:08:17.255Z,21.10
2018-09-21T20:10:45.814Z,21.10
2018-09-21T20:13:14.326Z,21.10
2018-09-21T20:15:42.854Z,21.10
2018-09-21T20:18:11.406Z,21.00
2018-09-21T20:20:39.941Z,21.00
2018-09-21T20:23:10.108Z,21.00
2018-09-21T20:25:40.139Z,20.90
2018-09-21T20:28:10.131Z,21.00
2018-09-21T20:30:43.928Z,20.90
2018-09-21T20:33:17.809Z,20.90
2018-09-21T20:35:46.414Z,20.80
2018-09-21T20:38:15.645Z,20.80
2018-09-21T20:40:44.202Z,20.70
2018-09-21T20:43:12.759Z,20.60
2018-09-21T20:45:41.284Z,20.60
2018-09-21T20:48:09.948Z,20.50
2018-09-21T20:50:38.513Z,20.50
2018-09-21T20:53:07.079Z,20.40
2018-09-21T20:55:35.619Z,20.40
2018-09-21T20:58:04.241Z,20.30
2018-09-21T21:00:32.771Z,20.30
2018-09-21T21:03:05.891Z,20.20
2018-09-21T21:05:34.505Z,20.20
2018-09-21T21:08:05.181Z,20.20
2018-09-21T21:10:33.802Z,20.20
2018-09-21T21:13:03.342Z,20.20
2018-09-21T21:15:31.888Z,20.10
2018-09-21T21:18:00.527Z,20.00
2018-09-21T21:20:29.115Z,20.10
2018-09-21T21:22:57.642Z,20.00
2018-09-21T21:25:26.195Z,20.00
2018-09-21T21:27:54.723Z,20.00
2018-09-21T21:30:23.290Z,19.90
2018-09-21T21:32:51.821Z,19.90
2018-09-21T21:35:20.709Z,19.90
2018-09-21T21:37:49.235Z,19.80
2018-09-21T21:40:17.807Z,19.80
2018-09-21T21:42:46.400Z,19.80
2018-09-21T21:45:15.260Z,19.80
2018-09-21T21:47:43.804Z,19.80
2018-09-21T21:50:12.412Z,19.80
2018-09-21T21:52:40.949Z,19.70
2018-09-21T21:55:09.515Z,19.70
2018-09-21T21:57:37.998Z,19.60
2018-09-21T22:00:07.885Z,19.60
2018-09-21T22:02:36.748Z,19.60
2018-09-21T22:05:05.419Z,19.70
2018-09-21T22:07:35.279Z,19.80
2018-09-21T22:10:10.644Z,19.80
2018-09-21T22:12:44.473Z,19.90
2018-09-21T22:15:18.647Z,20.00
2018-09-21T22:17:48.108Z,20.10
2018-09-21T22:20:16.727Z,20.20
2018-09-21T22:22:45.251Z,20.40
2018-09-21T22:25:13.780Z,20.70
2018-09-21T22:27:42.962Z,20.70
2018-09-21T22:30:11.515Z,20.80
2018-09-21T22:32:40.542Z,20.90
2018-09-21T22:35:09.043Z,20.90
2018-09-21T22:37:37.708Z,20.90
2018-09-21T22:40:06.759Z,20.90
2018-09-21T22:42:35.320Z,20.80
2018-09-21T22:45:04.044Z,20.80
2018-09-21T22:47:32.627Z,20.80
2018-09-21T22:50:01.145Z,20.80
2018-09-21T22:52:29.692Z,20.70
2018-09-21T22:54:58.197Z,20.70
2018-09-21T22:57:26.756Z,20.70
2018-09-21T22:59:55.259Z,20.70
2018-09-21T23:02:23.821Z,20.70
2018-09-21T23:04:52.351Z,20.70
2018-09-21T23:07:20.915Z,20.70
2018-09-21T23:09:49.503Z,20.70
2018-09-21T23:12:18.062Z,20.70
2018-09-21T23:14:46.666Z,20.70
2018-09-21T23:17:15.170Z,20.70
2018-09-21T23:19:43.699Z,20.70
2018-09-21T23:22:12.203Z,20.70
2018-09-21T23:24:40.715Z,20.60
2018-09-21T23:27:09.229Z,20.60
2018-09-21T23:29:37.779Z,20.60
2018-09-21T23:32:06.350Z,20.60
2018-09-21T23:34:35.047Z,20.60
2018-09-21T23:37:03.565Z,20.60
2018-09-21T23:39:32.171Z,20.60
2018-09-21T23:42:00.663Z,20.50
2018-09-21T23:44:29.222Z,20.60
2018-09-21T23:46:57.711Z,20.60
2018-09-21T23:49:26.281Z,20.50
2018-09-21T23:51:54.764Z,20.50
2018-09-21T23:54:23.331Z,20.70
2018-09-21T23:56:51.871Z,20.70
2018-09-21T23:59:21.155Z,20.70
